createdAt,value
2023-12-30T00:02:19.859Z,0.19
2023-12-30T00:04:46.723Z,0.18
2023-12-30T00:07:13.854Z,0.16
2023-12-30T00:09:41.500Z,0.16
2023-12-30T00:12:08.658Z,0.16
2023-12-30T00:14:35.301Z,0.16
2023-12-30T00:17:02.050Z,0.19
2023-12-30T00:19:29.454Z,0.18
2023-12-30T00:21:56.594Z,0.19
2023-12-30T00:24:23.439Z,0.19
2023-12-30T00:26:51.465Z,0.18
2023-12-30T00:29:18.237Z,0.18
2023-12-30T00:31:45.000Z,0.16
2023-12-30T00:34:12.219Z,0.11
2023-12-30T00:36:43.519Z,0.06
2023-12-30T00:39:10.254Z,-0.02
2023-12-30T00:41:37.720Z,-0.12
2023-12-30T00:44:04.699Z,-0.20
2023-12-30T00:46:31.435Z,-0.23
2023-12-30T00:48:58.781Z,-0.25
2023-12-30T00:51:26.319Z,-0.26
2023-12-30T00:53:53.197Z,-0.23
2023-12-30T00:56:20.321Z,-0.22
2023-12-30T00:58:47.305Z,-0.21
2023-12-30T01:01:14.914Z,-0.21
2023-12-30T01:03:42.218Z,-0.20
2023-12-30T01:06:09.536Z,-0.23
2023-12-30T01:08:36.636Z,-0.26
2023-12-30T01:11:03.614Z,-0.26
2023-12-30T01:13:30.421Z,-0.27
2023-12-30T01:15:57.243Z,-0.25
2023-12-30T01:18:24.047Z,-0.21
2023-12-30T01:20:51.114Z,-0.23
2023-12-30T01:23:17.863Z,-0.24
2023-12-30T01:25:44.915Z,-0.26
2023-12-30T01:28:11.820Z,-0.26
2023-12-30T01:30:38.929Z,-0.28
2023-12-30T01:33:06.795Z,-0.29
2023-12-30T01:35:34.564Z,-0.30
2023-12-30T01:38:03.410Z,-0.33
2023-12-30T01:40:32.095Z,-0.37
2023-12-30T01:42:59.415Z,-0.39
2023-12-30T01:45:26.493Z,-0.41
2023-12-30T01:47:53.813Z,-0.42
2023-12-30T01:50:22.183Z,-0.43
2023-12-30T01:52:49.902Z,-0.43
2023-12-30T01:55:18.794Z,-0.43
2023-12-30T01:57:45.855Z,-0.45
2023-12-30T02:00:20.557Z,-0.45
2023-12-30T02:02:48.721Z,-0.47
2023-12-30T02:05:16.943Z,-0.50
2023-12-30T02:07:46.706Z,-0.52
2023-12-30T02:10:14.287Z,-0.52
2023-12-30T02:12:41.744Z,-0.52
2023-12-30T02:15:26.887Z,-0.52
2023-12-30T02:17:55.340Z,-0.53
2023-12-30T02:20:22.436Z,-0.55
2023-12-30T02:22:49.381Z,-0.55
2023-12-30T02:25:24.585Z,-0.55
2023-12-30T02:28:09.523Z,-0.55
2023-12-30T02:30:36.324Z,-0.55
2023-12-30T02:33:03.649Z,-0.55
2023-12-30T02:35:30.667Z,-0.57
2023-12-30T02:37:58.033Z,-0.58
2023-12-30T02:40:24.895Z,-0.57
2023-12-30T02:42:51.683Z,-0.58
2023-12-30T02:45:18.934Z,-0.63
2023-12-30T02:47:45.752Z,-0.66
2023-12-30T02:50:12.788Z,-0.69
2023-12-30T02:52:41.731Z,-0.70
2023-12-30T02:55:08.896Z,-0.68
2023-12-30T02:57:48.263Z,-0.65
2023-12-30T03:00:18.350Z,-0.57
2023-12-30T03:02:45.484Z,-0.55
2023-12-30T03:05:12.732Z,-0.45
2023-12-30T03:07:40.566Z,-0.36
2023-12-30T03:10:08.360Z,-0.36
2023-12-30T03:12:35.345Z,-0.37
2023-12-30T03:15:02.506Z,-0.38
2023-12-30T03:17:29.302Z,-0.38
2023-12-30T03:19:56.527Z,-0.39
2023-12-30T03:22:23.483Z,-0.40
2023-12-30T03:24:50.422Z,-0.40
2023-12-30T03:27:17.374Z,-0.43
2023-12-30T03:29:45.543Z,-0.48
2023-12-30T03:32:12.505Z,-0.54
2023-12-30T03:34:40.770Z,-0.57
2023-12-30T03:37:07.691Z,-0.59
2023-12-30T03:39:34.617Z,-0.59
2023-12-30T03:42:01.460Z,-0.59
2023-12-30T03:44:28.307Z,-0.60
2023-12-30T03:46:55.286Z,-0.61
2023-12-30T03:49:22.242Z,-0.63
2023-12-30T03:51:49.122Z,-0.66
2023-12-30T03:54:16.187Z,-0.67
2023-12-30T03:56:43.085Z,-0.66
2023-12-30T03:59:10.088Z,-0.65
2023-12-30T04:01:37.025Z,-0.64
2023-12-30T04:04:04.298Z,-0.61
2023-12-30T04:06:31.302Z,-0.58
2023-12-30T04:08:58.367Z,-0.55
2023-12-30T04:11:25.222Z,-0.53
2023-12-30T04:13:52.060Z,-0.51
2023-12-30T04:16:18.816Z,-0.49
2023-12-30T04:18:45.957Z,-0.46
2023-12-30T04:21:13.022Z,-0.41
2023-12-30T04:23:39.768Z,-0.40
2023-12-30T04:26:06.724Z,-0.42
2023-12-30T04:28:33.496Z,-0.42
2023-12-30T04:31:00.652Z,-0.45
2023-12-30T04:33:27.624Z,-0.42
2023-12-30T04:35:54.427Z,-0.42
2023-12-30T04:38:21.314Z,-0.42
2023-12-30T04:40:48.282Z,-0.37
2023-12-30T04:43:15.332Z,-0.31
2023-12-30T04:45:42.327Z,-0.28
2023-12-30T04:48:09.467Z,-0.29
2023-12-30T04:50:36.549Z,-0.33
2023-12-30T04:55:59.904Z,-0.39
2023-12-30T04:58:27.860Z,-0.44
2023-12-30T05:00:54.692Z,-0.46
2023-12-30T05:03:22.002Z,-0.42
2023-12-30T05:05:48.834Z,-0.43
2023-12-30T05:08:15.892Z,-0.42
2023-12-30T05:10:42.686Z,-0.35
2023-12-30T05:13:10.209Z,-0.34
2023-12-30T05:15:37.275Z,-0.31
2023-12-30T05:18:04.820Z,-0.30
2023-12-30T05:20:31.893Z,-0.32
2023-12-30T05:23:02.078Z,-0.35
2023-12-30T05:25:29.849Z,-0.39
2023-12-30T05:27:56.787Z,-0.43
2023-12-30T05:30:23.844Z,-0.47
2023-12-30T05:32:50.701Z,-0.54
2023-12-30T05:35:17.725Z,-0.58
2023-12-30T05:37:44.890Z,-0.62
2023-12-30T05:40:12.348Z,-0.66
2023-12-30T05:42:39.295Z,-0.64
2023-12-30T05:45:06.820Z,-0.65
2023-12-30T05:47:33.517Z,-0.65
2023-12-30T05:50:00.622Z,-0.62
2023-12-30T05:52:27.600Z,-0.41
2023-12-30T05:54:54.478Z,-0.29
2023-12-30T05:57:21.342Z,-0.19
2023-12-30T05:59:48.010Z,-0.10
2023-12-30T06:02:15.046Z,-0.07
2023-12-30T06:04:42.182Z,-0.03
2023-12-30T06:07:09.917Z,0.03
2023-12-30T06:09:36.701Z,0.14
2023-12-30T06:12:04.034Z,0.20
2023-12-30T06:14:30.843Z,0.22
2023-12-30T06:16:57.601Z,0.24
2023-12-30T06:19:24.585Z,0.27
2023-12-30T06:21:51.536Z,0.26
2023-12-30T06:24:18.254Z,0.24
2023-12-30T06:26:45.215Z,0.22
2023-12-30T06:29:12.024Z,0.15
2023-12-30T06:31:42.702Z,0.07
2023-12-30T06:34:10.302Z,0.04
2023-12-30T06:36:37.744Z,0.01
2023-12-30T06:39:05.512Z,0.01
2023-12-30T06:41:32.456Z,0.03
2023-12-30T06:43:59.616Z,0.08
2023-12-30T06:46:26.307Z,0.10
2023-12-30T06:48:53.193Z,0.11
2023-12-30T06:51:20.269Z,0.18
2023-12-30T06:53:46.972Z,0.26
2023-12-30T06:56:14.224Z,0.37
2023-12-30T06:58:41.039Z,0.45
2023-12-30T07:01:07.969Z,0.57
2023-12-30T07:03:34.867Z,0.69
2023-12-30T07:06:01.664Z,0.73
2023-12-30T07:08:28.377Z,0.75
2023-12-30T07:10:54.993Z,0.78
2023-12-30T07:13:21.686Z,0.79
2023-12-30T07:15:48.829Z,0.85
2023-12-30T07:18:15.611Z,0.92
2023-12-30T07:20:42.582Z,0.98
2023-12-30T07:23:09.356Z,1.07
2023-12-30T07:25:36.076Z,1.16
2023-12-30T07:28:03.745Z,1.23
2023-12-30T07:30:30.709Z,1.30
2023-12-30T07:32:57.722Z,1.39
2023-12-30T07:35:24.554Z,1.45
2023-12-30T07:37:51.381Z,1.51
2023-12-30T07:40:18.199Z,1.53
2023-12-30T07:42:44.993Z,1.56
2023-12-30T07:45:11.745Z,1.53
2023-12-30T07:47:38.525Z,1.49
2023-12-30T07:50:06.285Z,1.51
2023-12-30T07:52:33.248Z,1.54
2023-12-30T07:55:00.023Z,1.59
2023-12-30T07:57:26.821Z,1.71
2023-12-30T07:59:53.586Z,1.86
2023-12-30T08:02:20.528Z,2.01
2023-12-30T08:04:47.212Z,2.18
2023-12-30T08:07:15.941Z,2.32
2023-12-30T08:09:42.809Z,2.48
2023-12-30T08:12:09.690Z,2.62
2023-12-30T08:14:36.647Z,2.76
2023-12-30T08:17:03.637Z,2.92
2023-12-30T08:19:30.480Z,3.08
2023-12-30T08:21:57.236Z,3.21
2023-12-30T08:24:24.010Z,3.31
2023-12-30T08:26:50.796Z,3.42
2023-12-30T08:29:17.517Z,3.52
2023-12-30T08:31:44.292Z,3.60
2023-12-30T08:34:12.407Z,3.68
2023-12-30T08:36:39.207Z,3.80
2023-12-30T08:39:06.059Z,3.92
2023-12-30T08:41:32.779Z,4.06
2023-12-30T08:43:59.431Z,4.16
2023-12-30T08:46:26.237Z,4.29
2023-12-30T08:48:53.286Z,4.43
2023-12-30T08:51:20.104Z,4.56
2023-12-30T08:53:47.065Z,4.67
2023-12-30T08:56:13.804Z,4.72
2023-12-30T08:58:40.525Z,4.73
2023-12-30T09:01:07.391Z,4.68
2023-12-30T09:03:34.462Z,4.67
2023-12-30T09:06:01.375Z,4.62
2023-12-30T09:08:28.391Z,4.64
2023-12-30T09:10:55.548Z,4.72
2023-12-30T09:13:22.234Z,4.81
2023-12-30T09:15:49.006Z,4.87
2023-12-30T09:18:15.945Z,5.09
2023-12-30T09:20:43.840Z,5.39
2023-12-30T09:23:10.514Z,5.75
2023-12-30T09:25:37.522Z,6.15
2023-12-30T09:28:04.971Z,6.54
2023-12-30T09:30:31.682Z,6.90
2023-12-30T09:32:58.483Z,7.22
2023-12-30T09:35:25.368Z,7.56
2023-12-30T09:37:52.304Z,7.87
2023-12-30T09:40:19.451Z,8.11
2023-12-30T09:42:48.837Z,8.35
2023-12-30T09:45:16.733Z,8.59
2023-12-30T09:47:46.170Z,8.74
2023-12-30T09:50:12.998Z,8.84
2023-12-30T09:52:39.711Z,8.93
2023-12-30T09:55:06.658Z,9.06
2023-12-30T09:57:33.646Z,9.20
2023-12-30T10:00:01.236Z,9.31
2023-12-30T10:02:28.922Z,9.42
2023-12-30T10:04:57.221Z,9.56
2023-12-30T10:07:24.142Z,9.68
2023-12-30T10:09:50.903Z,9.84
2023-12-30T10:12:17.707Z,9.98
2023-12-30T10:14:44.421Z,10.09
2023-12-30T10:17:11.130Z,10.16
2023-12-30T10:19:38.046Z,10.21
2023-12-30T10:22:05.176Z,10.23
2023-12-30T10:24:31.992Z,10.25
2023-12-30T10:26:58.636Z,10.26
2023-12-30T10:29:25.487Z,10.26
2023-12-30T10:32:02.157Z,10.29
2023-12-30T10:34:28.824Z,10.34
2023-12-30T10:36:56.758Z,10.35
2023-12-30T10:39:24.149Z,10.34
2023-12-30T10:41:51.016Z,10.33
2023-12-30T10:44:18.976Z,10.35
2023-12-30T10:46:49.353Z,10.43
2023-12-30T10:49:17.413Z,10.51
2023-12-30T10:51:44.673Z,10.55
2023-12-30T10:54:18.201Z,10.56
2023-12-30T10:56:48.770Z,10.55
2023-12-30T10:59:17.704Z,10.52
2023-12-30T11:01:44.680Z,10.50
2023-12-30T11:04:12.875Z,10.49
2023-12-30T11:06:49.781Z,10.50
2023-12-30T11:09:16.695Z,10.52
2023-12-30T11:11:50.723Z,10.52
2023-12-30T11:14:17.768Z,10.52
2023-12-30T11:16:45.900Z,10.53
2023-12-30T11:19:29.477Z,10.56
2023-12-30T11:21:59.639Z,10.55
2023-12-30T11:24:28.201Z,10.57
2023-12-30T11:26:56.183Z,10.59
2023-12-30T11:29:28.187Z,10.62
2023-12-30T11:31:57.245Z,10.62
2023-12-30T11:34:24.833Z,10.69
2023-12-30T11:36:53.781Z,10.72
2023-12-30T11:39:27.239Z,10.71
2023-12-30T11:41:54.152Z,10.70
2023-12-30T11:44:21.855Z,10.69
2023-12-30T11:46:49.006Z,10.61
2023-12-30T11:49:20.377Z,10.56
2023-12-30T11:51:47.231Z,10.51
2023-12-30T11:54:14.300Z,10.45
2023-12-30T11:56:41.553Z,10.40
2023-12-30T11:59:08.914Z,10.32
2023-12-30T12:01:36.063Z,10.26
2023-12-30T12:04:03.096Z,10.22
2023-12-30T12:06:30.620Z,10.18
2023-12-30T12:08:57.359Z,10.18
2023-12-30T12:11:24.181Z,10.19
2023-12-30T12:13:57.283Z,10.20
2023-12-30T12:16:24.084Z,10.24
2023-12-30T12:18:50.957Z,10.26
2023-12-30T12:21:17.939Z,10.31
2023-12-30T12:23:44.785Z,10.38
2023-12-30T12:26:11.560Z,10.42
2023-12-30T12:28:38.579Z,10.44
2023-12-30T12:31:08.407Z,10.53
2023-12-30T12:33:36.528Z,10.63
2023-12-30T12:36:04.465Z,10.79
2023-12-30T12:38:31.340Z,10.92
2023-12-30T12:40:58.282Z,11.06
2023-12-30T12:43:24.968Z,11.23
2023-12-30T12:45:51.878Z,11.30
2023-12-30T12:48:18.826Z,11.33
2023-12-30T12:50:45.916Z,11.43
2023-12-30T12:53:12.624Z,11.42
2023-12-30T12:55:39.414Z,11.38
2023-12-30T12:58:06.051Z,11.38
2023-12-30T13:00:33.198Z,11.36
2023-12-30T13:03:01.841Z,11.30
2023-12-30T13:05:29.268Z,11.26
2023-12-30T13:07:56.005Z,11.25
2023-12-30T13:10:22.837Z,11.27
2023-12-30T13:12:50.641Z,11.27
2023-12-30T13:15:17.476Z,11.22
2023-12-30T13:17:44.152Z,11.18
2023-12-30T13:20:13.540Z,11.19
2023-12-30T13:22:40.569Z,11.17
2023-12-30T13:25:07.961Z,11.16
2023-12-30T13:27:34.858Z,11.13
2023-12-30T13:30:01.548Z,11.09
2023-12-30T13:32:28.383Z,11.05
2023-12-30T13:34:56.152Z,10.95
2023-12-30T13:37:22.939Z,10.90
2023-12-30T13:39:49.872Z,10.82
2023-12-30T13:42:16.613Z,10.75
2023-12-30T13:44:43.819Z,10.69
2023-12-30T13:47:11.144Z,10.63
2023-12-30T13:49:38.521Z,10.57
2023-12-30T13:52:06.068Z,10.49
2023-12-30T13:54:32.935Z,10.43
2023-12-30T13:56:59.649Z,10.38
2023-12-30T13:59:26.431Z,10.34
2023-12-30T14:01:53.193Z,10.09
2023-12-30T14:04:20.175Z,9.67
2023-12-30T14:06:47.280Z,9.27
2023-12-30T14:09:14.079Z,8.96
2023-12-30T14:11:40.888Z,8.70
2023-12-30T14:14:07.754Z,8.46
2023-12-30T14:16:34.730Z,8.26
2023-12-30T14:19:01.703Z,8.12
2023-12-30T14:21:28.602Z,8.01
2023-12-30T14:23:55.251Z,7.92
2023-12-30T14:26:22.500Z,7.84
2023-12-30T14:28:49.455Z,7.76
2023-12-30T14:31:16.218Z,7.67
2023-12-30T14:33:43.293Z,7.62
2023-12-30T14:36:10.512Z,7.56
2023-12-30T14:38:37.979Z,7.49
2023-12-30T14:41:04.626Z,7.44
2023-12-30T14:43:31.320Z,7.40
2023-12-30T14:45:58.173Z,7.37
2023-12-30T14:48:25.119Z,7.33
2023-12-30T14:50:51.844Z,7.30
2023-12-30T14:53:18.569Z,7.28
2023-12-30T14:55:45.356Z,7.25
2023-12-30T14:58:12.730Z,7.22
2023-12-30T15:00:39.356Z,7.19
2023-12-30T15:03:06.611Z,7.16
2023-12-30T15:05:33.783Z,7.12
2023-12-30T15:08:00.535Z,7.10
2023-12-30T15:10:27.902Z,7.07
2023-12-30T15:12:54.715Z,7.02
2023-12-30T15:15:21.800Z,6.94
2023-12-30T15:17:48.720Z,6.85
2023-12-30T15:20:15.782Z,6.75
2023-12-30T15:22:42.858Z,6.68
2023-12-30T15:25:09.810Z,6.63
2023-12-30T15:27:37.146Z,6.58
2023-12-30T15:30:04.563Z,6.51
2023-12-30T15:32:31.482Z,6.47
2023-12-30T15:34:58.403Z,6.46
2023-12-30T15:37:25.679Z,6.44
2023-12-30T15:39:52.423Z,6.41
2023-12-30T15:42:19.169Z,6.39
2023-12-30T15:44:45.826Z,6.37
2023-12-30T15:47:12.706Z,6.37
2023-12-30T15:49:39.506Z,6.37
2023-12-30T15:52:07.702Z,6.35
2023-12-30T15:54:34.661Z,6.35
2023-12-30T15:57:01.300Z,6.35
2023-12-30T15:59:28.792Z,6.33
2023-12-30T16:01:55.568Z,6.33
2023-12-30T16:04:22.363Z,6.33
2023-12-30T16:06:49.428Z,6.32
2023-12-30T16:09:16.165Z,6.31
2023-12-30T16:11:42.814Z,6.31
2023-12-30T16:14:09.630Z,6.31
2023-12-30T16:16:36.679Z,6.32
2023-12-30T16:19:03.530Z,6.33
2023-12-30T16:21:30.369Z,6.33
2023-12-30T16:23:57.059Z,6.33
2023-12-30T16:26:24.120Z,6.31
2023-12-30T16:28:50.764Z,6.28
2023-12-30T16:31:17.538Z,6.25
2023-12-30T16:33:45.520Z,6.14
2023-12-30T16:36:14.586Z,5.97
2023-12-30T16:38:41.305Z,5.84
2023-12-30T16:41:15.393Z,5.72
2023-12-30T16:43:42.038Z,5.60
2023-12-30T16:46:09.046Z,5.52
2023-12-30T16:48:36.496Z,5.41
2023-12-30T16:51:03.971Z,5.33
2023-12-30T16:53:30.620Z,5.25
2023-12-30T16:55:59.865Z,5.17
2023-12-30T16:58:26.735Z,5.11
2023-12-30T17:03:25.016Z,5.06
2023-12-30T17:05:51.743Z,5.05
2023-12-30T17:08:18.388Z,5.05
2023-12-30T17:10:45.291Z,5.04
2023-12-30T17:13:12.147Z,5.02
2023-12-30T17:15:38.935Z,5.04
2023-12-30T17:18:06.030Z,5.10
2023-12-30T17:20:35.258Z,5.11
2023-12-30T17:23:02.384Z,5.10
2023-12-30T17:25:29.335Z,5.08
2023-12-30T17:27:56.161Z,5.06
2023-12-30T17:30:22.932Z,5.05
2023-12-30T17:32:49.703Z,5.02
2023-12-30T17:35:16.622Z,4.98
2023-12-30T17:37:43.281Z,4.95
2023-12-30T17:40:10.883Z,4.90
2023-12-30T17:42:37.667Z,4.86
2023-12-30T17:45:04.972Z,4.80
2023-12-30T17:47:31.796Z,4.77
2023-12-30T17:49:58.532Z,4.74
2023-12-30T17:52:25.286Z,4.73
2023-12-30T17:54:52.122Z,4.73
2023-12-30T17:57:18.782Z,4.73
2023-12-30T17:59:45.513Z,4.74
2023-12-30T18:02:12.190Z,4.73
2023-12-30T18:04:39.052Z,4.73
2023-12-30T18:07:06.070Z,4.73
2023-12-30T18:09:32.712Z,4.71
2023-12-30T18:11:59.355Z,4.71
2023-12-30T18:14:26.459Z,4.69
2023-12-30T18:16:53.161Z,4.68
2023-12-30T18:19:19.907Z,4.67
2023-12-30T18:21:46.877Z,4.66
2023-12-30T18:24:13.746Z,4.62
2023-12-30T18:26:40.877Z,4.59
2023-12-30T18:29:07.665Z,4.54
2023-12-30T18:31:34.376Z,4.51
2023-12-30T18:34:01.259Z,4.48
2023-12-30T18:36:28.279Z,4.48
2023-12-30T18:38:54.945Z,4.48
2023-12-30T18:41:21.687Z,4.46
2023-12-30T18:43:48.460Z,4.44
2023-12-30T18:46:15.592Z,4.43
2023-12-30T18:48:42.461Z,4.42
2023-12-30T18:51:09.824Z,4.42
2023-12-30T18:53:36.536Z,4.42
2023-12-30T18:56:03.405Z,4.42
2023-12-30T18:58:30.898Z,4.43
2023-12-30T19:00:58.783Z,4.44
2023-12-30T19:03:25.528Z,4.45
2023-12-30T19:05:52.403Z,4.46
2023-12-30T19:08:19.191Z,4.46
2023-12-30T19:10:45.973Z,4.47
2023-12-30T19:13:12.822Z,4.47
2023-12-30T19:15:39.543Z,4.47
2023-12-30T19:18:06.781Z,4.49
2023-12-30T19:20:33.652Z,4.49
2023-12-30T19:23:00.552Z,4.50
2023-12-30T19:25:27.801Z,4.49
2023-12-30T19:27:54.527Z,4.50
2023-12-30T19:30:21.281Z,4.47
2023-12-30T19:32:48.110Z,4.43
2023-12-30T19:35:15.373Z,4.37
2023-12-30T19:37:42.730Z,4.34
2023-12-30T19:40:10.749Z,4.31
2023-12-30T19:42:37.467Z,4.29
2023-12-30T19:45:05.038Z,4.29
2023-12-30T19:47:31.698Z,4.28
2023-12-30T19:49:58.408Z,4.29
2023-12-30T19:52:25.122Z,4.27
2023-12-30T19:54:51.914Z,4.27
2023-12-30T19:57:18.572Z,4.26
2023-12-30T19:59:45.333Z,4.26
2023-12-30T20:02:12.282Z,4.25
2023-12-30T20:04:42.275Z,4.26
2023-12-30T20:07:09.269Z,4.27
2023-12-30T20:09:36.510Z,4.29
2023-12-30T20:12:03.697Z,4.31
2023-12-30T20:14:30.413Z,4.33
2023-12-30T20:16:57.262Z,4.35
2023-12-30T20:19:24.194Z,4.36
2023-12-30T20:21:51.190Z,4.38
2023-12-30T20:24:18.011Z,4.38
2023-12-30T20:26:47.626Z,4.38
2023-12-30T20:29:14.791Z,4.38
2023-12-30T20:31:43.456Z,4.40
2023-12-30T20:34:10.479Z,4.39
2023-12-30T20:36:37.698Z,4.40
2023-12-30T20:39:04.436Z,4.40
2023-12-30T20:41:31.081Z,4.41
2023-12-30T20:43:58.463Z,4.42
2023-12-30T20:46:25.235Z,4.45
2023-12-30T20:48:52.124Z,4.46
2023-12-30T20:51:19.217Z,4.48
2023-12-30T20:53:46.159Z,4.53
2023-12-30T20:56:12.924Z,4.54
2023-12-30T20:58:39.902Z,4.50
2023-12-30T21:01:06.914Z,4.51
2023-12-30T21:03:33.830Z,4.53
2023-12-30T21:06:00.680Z,4.51
2023-12-30T21:08:27.579Z,4.52
2023-12-30T21:10:54.356Z,4.53
2023-12-30T21:13:21.324Z,4.52
2023-12-30T21:15:48.029Z,4.50
2023-12-30T21:18:14.922Z,4.49
2023-12-30T21:20:41.870Z,4.48
2023-12-30T21:23:08.581Z,4.47
2023-12-30T21:25:35.875Z,4.47
2023-12-30T21:28:05.399Z,4.47
2023-12-30T21:30:32.129Z,4.45
2023-12-30T21:32:58.889Z,4.45
2023-12-30T21:35:25.598Z,4.45
2023-12-30T21:37:52.261Z,4.44
2023-12-30T21:40:22.053Z,4.44
2023-12-30T21:42:54.978Z,4.43
2023-12-30T21:45:21.699Z,4.42
2023-12-30T21:47:48.395Z,4.43
2023-12-30T21:50:15.307Z,4.44
2023-12-30T21:52:42.286Z,4.44
2023-12-30T21:55:09.346Z,4.43
2023-12-30T21:57:36.268Z,4.42
2023-12-30T22:00:03.224Z,4.40
2023-12-30T22:02:30.010Z,4.38
2023-12-30T22:04:57.122Z,4.37
2023-12-30T22:07:23.884Z,4.37
2023-12-30T22:09:50.856Z,4.36
2023-12-30T22:12:17.576Z,4.35
2023-12-30T22:14:44.318Z,4.34
2023-12-30T22:17:11.546Z,4.33
2023-12-30T22:19:38.566Z,4.33
2023-12-30T22:22:05.618Z,4.34
2023-12-30T22:24:32.430Z,4.34
2023-12-30T22:26:59.079Z,4.34
2023-12-30T22:29:25.730Z,4.33
2023-12-30T22:31:52.369Z,4.32
2023-12-30T22:34:19.150Z,4.32
2023-12-30T22:36:46.394Z,4.31
2023-12-30T22:39:13.130Z,4.28
2023-12-30T22:41:39.711Z,4.22
2023-12-30T22:44:06.429Z,4.16
2023-12-30T22:46:33.115Z,4.10
2023-12-30T22:48:59.859Z,4.04
2023-12-30T22:51:26.622Z,4.00
2023-12-30T22:53:53.315Z,3.94
2023-12-30T22:56:20.156Z,3.89
2023-12-30T22:58:46.888Z,3.83
2023-12-30T23:01:13.955Z,3.75
2023-12-30T23:03:40.863Z,3.67
2023-12-30T23:06:07.516Z,3.59
2023-12-30T23:08:34.229Z,3.51
2023-12-30T23:11:01.154Z,3.44
2023-12-30T23:13:27.856Z,3.37
2023-12-30T23:15:54.778Z,3.34
2023-12-30T23:18:21.585Z,3.34
2023-12-30T23:20:48.382Z,3.34
2023-12-30T23:23:15.033Z,3.32
2023-12-30T23:25:41.969Z,3.28
2023-12-30T23:28:08.753Z,3.25
2023-12-30T23:30:35.402Z,3.25
2023-12-30T23:33:02.798Z,3.25
2023-12-30T23:35:29.871Z,3.22
2023-12-30T23:37:56.538Z,3.21
2023-12-30T23:40:23.461Z,3.21
2023-12-30T23:42:50.438Z,3.23
2023-12-30T23:45:17.080Z,3.21
2023-12-30T23:47:44.390Z,3.17
2023-12-30T23:50:12.274Z,3.14
2023-12-30T23:52:39.158Z,3.12
2023-12-30T23:55:07.806Z,3.12
2023-12-30T23:57:34.542Z,3.14
